Terminal Aerodrome Forecast
Issued by NWS Tuscon, AZ

Home | Current Version | Previous Version | Text Only | Print | Product List | Glossary On
Versions: 1 2 3 4 5 6 7 8 9 10 11 12
000
FTUS45 KTWC 261120
TAFDUG
TAF
KDUG 261120Z 2612/2712 VRB04KT P6SM SCT090 OVC110
     FM261500 21013KT P6SM SCT080 BKN100
     FM262000 25025G35KT P6SM BKN100
     FM270300 30012G18KT P6SM FEW060
     FM270600 22006KT P6SM SKC=

USA.gov is the U.S. government's official web portal to all federal, state and local government web resources and services.